Time;durP1;ratioP1;P1;durP2;ratioP2;P2;SDS_P1;SDS_P2;PMS_P1;PMS_P2;Temp;Humidity;BMP_temperature;BMP_pressure;BME280_temperature;BME280_humidity;BME280_pressure;Samples;Min_cycle;Max_cycle;Signal;HPM_P1;HPM_P2
2022/03/03 00:02:23;;;;;;;27.50;16.70;;;;;;;0.69;64.02;102017.53;4973329;28;20073;-79
2022/03/03 00:04:49;;;;;;;26.00;17.63;;;;;;;0.72;64.86;102037.00;4973244;28;20041;-77
2022/03/03 00:07:14;;;;;;;29.15;18.13;;;;;;;0.80;64.94;102056.47;4973303;28;20030;-79
2022/03/03 00:09:40;;;;;;;26.30;17.25;;;;;;;0.52;65.64;102026.88;4973144;28;20028;-76
2022/03/03 00:12:06;;;;;;;25.65;17.35;;;;;;;0.64;65.19;102049.72;4975384;28;20392;-79
2022/03/03 00:14:32;;;;;;;27.95;17.80;;;;;;;0.69;65.86;102057.34;4975638;28;20418;-78
2022/03/03 00:16:57;;;;;;;27.13;17.17;;;;;;;0.67;64.86;102052.25;4976972;28;20447;-77
2022/03/03 00:19:22;;;;;;;25.75;17.02;;;;;;;0.73;65.06;102052.25;4976787;28;20034;-77
2022/03/03 00:21:48;;;;;;;27.17;17.55;;;;;;;0.76;65.13;102053.94;4976836;28;20508;-76
2022/03/03 00:24:13;;;;;;;29.25;18.13;;;;;;;0.77;64.87;102055.63;4976561;28;20057;-77
2022/03/03 00:26:39;;;;;;;28.05;18.17;;;;;;;0.73;64.83;102052.25;4976593;28;20389;-78
2022/03/03 00:29:04;;;;;;;27.63;18.05;;;;;;;0.71;64.74;102048.88;4976703;28;20427;-76
2022/03/03 00:31:29;;;;;;;27.08;17.92;;;;;;;0.63;64.99;102047.19;4976636;28;20038;-78
2022/03/03 00:33:55;;;;;;;29.90;17.95;;;;;;;0.68;65.25;102045.47;4976507;28;20027;-78
2022/03/03 00:36:20;;;;;;;28.95;17.88;;;;;;;0.65;65.41;102046.34;4976409;28;20468;-78
2022/03/03 00:38:47;;;;;;;28.83;18.08;;;;;;;0.25;65.31;101982.06;4976440;28;20027;-76
2022/03/03 00:41:12;;;;;;;27.92;18.48;;;;;;;0.45;66.80;102030.28;4976452;28;20038;-76
2022/03/03 00:43:37;;;;;;;31.90;19.05;;;;;;;0.46;66.56;102042.13;4976515;28;20027;-76
2022/03/03 00:46:03;;;;;;;27.88;18.35;;;;;;;0.26;67.33;102020.16;4976668;28;20101;-77
2022/03/03 00:48:28;;;;;;;32.22;19.70;;;;;;;0.30;66.73;102025.25;4976425;28;20085;-79
2022/03/03 00:50:53;;;;;;;32.42;19.05;;;;;;;0.34;67.18;102039.63;4976153;28;20035;-76
2022/03/03 00:53:19;;;;;;;32.70;19.77;;;;;;;0.23;67.27;102037.09;4976316;28;20027;-77
2022/03/03 00:55:44;;;;;;;31.02;19.58;;;;;;;0.16;68.10;102035.41;4976051;28;20106;-78
2022/03/03 00:58:10;;;;;;;30.63;19.73;;;;;;;-0.08;68.47;102009.19;4976141;28;20494;-78
2022/03/03 01:00:35;;;;;;;30.52;19.27;;;;;;;0.08;68.32;102037.09;4976414;28;20381;-81
2022/03/03 01:03:01;;;;;;;31.67;19.25;;;;;;;-0.45;68.64;101961.78;4974949;28;20077;-79
2022/03/03 01:05:26;;;;;;;27.65;18.05;;;;;;;-0.06;68.87;102047.25;4975968;28;20066;-80
2022/03/03 01:07:52;;;;;;;30.38;18.80;;;;;;;-0.15;69.56;102039.63;4975849;28;20383;-80
2022/03/03 01:10:17;;;;;;;30.60;19.70;;;;;;;-0.45;70.02;102005.78;4976131;28;20031;-77
2022/03/03 01:12:42;;;;;;;28.23;18.23;;;;;;;-0.23;70.08;102041.31;4975949;28;20023;-77
2022/03/03 01:15:10;;;;;;;32.55;19.67;;;;;;;-0.33;70.08;102031.16;4976162;28;20018;-77
2022/03/03 01:17:35;;;;;;;30.75;18.80;;;;;;;-0.57;70.47;102003.22;4975915;28;20110;-77
2022/03/03 01:20:01;;;;;;;27.20;18.67;;;;;;;-0.77;70.55;101970.22;4975759;28;20556;-77
2022/03/03 01:22:27;;;;;;;30.10;19.35;;;;;;;-0.46;71.05;102036.22;4975634;28;20055;-79
2022/03/03 01:24:52;;;;;;;32.10;19.20;;;;;;;-0.52;71.83;102037.03;4975853;28;20019;-78
2022/03/03 01:27:19;;;;;;;30.73;19.40;;;;;;;-0.64;72.26;102027.72;4975798;28;20548;-78
2022/03/03 01:29:44;;;;;;;28.23;18.42;;;;;;;-0.67;72.67;102029.41;4975356;28;20029;-76
2022/03/03 01:32:09;;;;;;;30.80;18.23;;;;;;;-0.63;72.85;102031.09;4975638;28;20031;-76
2022/03/03 01:34:36;;;;;;;30.17;18.05;;;;;;;-0.73;72.00;102009.94;4975444;28;20022;-78
2022/03/03 01:37:02;;;;;;;28.05;18.77;;;;;;;-0.72;72.61;102013.31;4975605;28;20018;-79
2022/03/03 01:39:27;;;;;;;29.40;18.95;;;;;;;-0.85;73.21;102002.31;4975467;28;20480;-78
2022/03/03 01:41:53;;;;;;;28.92;17.90;;;;;;;-0.92;73.65;101993.81;4975477;28;20078;-76
2022/03/03 01:44:18;;;;;;;30.55;18.92;;;;;;;-0.83;73.71;102010.75;4975352;28;20030;-77
2022/03/03 01:46:51;;;;;;;29.98;19.63;;;;;;;-1.11;73.69;101966.72;4975455;28;20054;-78
2022/03/03 01:49:17;;;;;;;30.65;19.38;;;;;;;-1.07;74.39;101978.56;4975503;28;20105;-86
2022/03/03 01:51:42;;;;;;;32.40;19.90;;;;;;;-0.92;73.99;102005.66;4973783;28;20037;-76
2022/03/03 01:54:07;;;;;;;34.10;20.55;;;;;;;-1.00;74.29;102000.56;4975093;28;20083;-77
2022/03/03 01:56:34;;;;;;;32.20;20.55;;;;;;;-1.19;73.96;101978.50;4975062;28;20054;-83
2022/03/03 01:58:59;;;;;;;32.78;20.42;;;;;;;-1.36;74.83;101944.69;4975054;28;20035;-85
2022/03/03 02:01:24;;;;;;;36.20;21.85;;;;;;;-1.27;74.11;101970.91;4974970;28;20034;-84
2022/03/03 02:03:49;;;;;;;32.65;20.13;;;;;;;-1.47;74.63;101940.41;4975136;28;20031;-78
2022/03/03 02:06:15;;;;;;;33.40;20.10;;;;;;;-1.16;75.18;101992.06;4975017;28;20388;-85
2022/03/03 02:08:40;;;;;;;30.70;20.02;;;;;;;-1.25;75.64;101981.03;4974910;28;20038;-85
2022/03/03 02:11:05;;;;;;;36.00;20.25;;;;;;;-1.21;75.28;101990.34;4974920;28;20500;-76
2022/03/03 02:13:31;;;;;;;33.17;20.17;;;;;;;-1.24;75.81;101986.09;4974742;28;20038;-80
2022/03/03 02:15:56;;;;;;;30.90;19.05;;;;;;;-1.23;75.91;101986.94;4974508;28;20030;-76
2022/03/03 02:18:22;;;;;;;29.88;19.77;;;;;;;-1.37;76.77;101969.16;4975110;28;20031;-76
2022/03/03 02:20:48;;;;;;;29.77;19.58;;;;;;;-1.39;76.55;101965.75;4974653;28;20062;-79
2022/03/03 02:23:14;;;;;;;33.05;19.70;;;;;;;-1.51;76.40;101950.50;4974778;28;20027;-78
2022/03/03 02:25:39;;;;;;;32.83;19.55;;;;;;;-1.34;76.58;101984.38;4974665;28;20085;-85
2022/03/03 02:28:05;;;;;;;29.48;19.42;;;;;;;-1.43;76.88;101975.88;4974588;28;20034;-78
2022/03/03 02:30:31;;;;;;;34.33;20.23;;;;;;;-1.42;77.10;101975.88;4974321;28;20023;-85
2022/03/03 02:32:56;;;;;;;31.00;20.27;;;;;;;-1.45;76.84;101974.19;4974672;28;20109;-77
2022/03/03 02:35:22;;;;;;;34.40;20.10;;;;;;;-1.45;76.54;101976.72;4973851;28;20051;-77
2022/03/03 02:37:47;;;;;;;33.83;20.05;;;;;;;-1.44;76.21;101980.09;4974557;28;20023;-76
2022/03/03 02:40:20;;;;;;;30.98;19.58;;;;;;;-1.64;76.55;101953.81;4974291;28;20440;-78
2022/03/03 02:42:54;;;;;;;33.15;20.48;;;;;;;-1.55;76.71;101967.38;4974437;28;20080;-85
2022/03/03 02:45:20;;;;;;;32.40;19.42;;;;;;;-1.49;76.65;101974.16;4974164;28;20045;-78
2022/03/03 02:47:47;;;;;;;32.50;20.15;;;;;;;-1.52;76.88;101972.47;4974514;28;20027;-78
2022/03/03 02:50:13;;;;;;;30.88;19.25;;;;;;;-1.85;77.67;101919.13;4974192;28;20058;-78
2022/03/03 02:52:39;;;;;;;31.98;19.88;;;;;;;-1.59;77.97;101970.72;4974032;28;20412;-84
2022/03/03 02:55:05;;;;;;;34.25;20.55;;;;;;;-1.62;78.51;101968.19;4974236;28;20026;-77
2022/03/03 03:00:15;;;;;;;30.00;19.00;;;;;;;-1.66;78.92;101974.09;4974032;28;20046;-80
2022/03/03 03:02:41;;;;;;;31.27;20.38;;;;;;;-1.67;78.92;101969.00;4974067;28;20106;-79
2022/03/03 03:05:06;;;;;;;31.30;20.38;;;;;;;-1.94;79.35;101929.19;4974172;28;20137;-77
2022/03/03 03:07:32;;;;;;;31.95;19.63;;;;;;;-1.89;79.25;101942.69;4973808;28;20027;-81
2022/03/03 03:09:57;;;;;;;32.67;19.98;;;;;;;-2.10;79.59;101911.34;4974090;28;20039;-77
2022/03/03 03:12:22;;;;;;;30.88;19.58;;;;;;;-1.95;79.50;101943.53;4973678;28;20039;-76
2022/03/03 03:14:48;;;;;;;29.00;19.27;;;;;;;-1.86;79.89;101961.31;4973983;28;20133;-77
2022/03/03 03:17:13;;;;;;;33.20;19.60;;;;;;;-2.16;79.54;101915.56;4973970;28;20065;-77
2022/03/03 03:19:38;;;;;;;31.20;20.67;;;;;;;-1.86;79.25;101966.38;4973945;28;20042;-76
2022/03/03 03:22:04;;;;;;;29.13;18.98;;;;;;;-1.90;79.69;101954.50;4973757;28;20026;-82
2022/03/03 03:24:30;;;;;;;31.05;20.25;;;;;;;-1.92;80.08;101956.19;4973752;28;20038;-77
2022/03/03 03:26:55;;;;;;;31.45;19.45;;;;;;;-1.91;80.20;101949.44;4973789;28;20039;-78
2022/03/03 03:29:20;;;;;;;31.65;20.30;;;;;;;-2.06;80.02;101928.28;4973807;28;20400;-78
2022/03/03 03:31:46;;;;;;;32.55;19.45;;;;;;;-2.02;79.79;101924.06;4973756;28;20043;-77
2022/03/03 03:34:11;;;;;;;31.30;20.23;;;;;;;-2.12;80.05;101907.97;4973688;28;20170;-79
2022/03/03 03:36:37;;;;;;;30.25;20.00;;;;;;;-2.01;80.43;101935.88;4973686;28;20031;-79
2022/03/03 03:39:03;;;;;;;32.63;20.40;;;;;;;-1.93;80.59;101941.00;4988664;28;20465;-79
2022/03/03 03:41:29;;;;;;;29.02;19.10;;;;;;;-2.08;79.34;101913.88;4973570;28;20440;-78
2022/03/03 03:43:55;;;;;;;32.33;19.48;;;;;;;-1.89;80.44;101945.22;4973639;28;20422;-77
2022/03/03 03:46:20;;;;;;;32.08;20.38;;;;;;;-1.88;79.59;101941.84;4976399;28;20023;-76
2022/03/03 03:48:45;;;;;;;33.67;19.50;;;;;;;-1.89;80.08;101933.41;4977497;28;20038;-78
2022/03/03 03:51:11;;;;;;;32.05;20.25;;;;;;;-1.88;79.43;101934.25;4977339;28;20035;-77
2022/03/03 03:53:36;;;;;;;31.15;20.55;;;;;;;-1.87;78.77;101933.41;4977220;28;20041;-79
2022/03/03 03:56:01;;;;;;;31.58;20.75;;;;;;;-1.89;78.91;101927.50;4977185;28;20126;-79
2022/03/03 03:58:27;;;;;;;30.30;20.17;;;;;;;-1.94;79.51;101926.66;4977386;28;20027;-79
2022/03/03 04:00:52;;;;;;;36.50;20.92;;;;;;;-1.99;79.24;101925.75;4975577;28;20038;-79
2022/03/03 04:03:17;;;;;;;31.45;20.58;;;;;;;-1.96;79.31;101925.81;4977262;28;20037;-80
2022/03/03 04:05:43;;;;;;;36.63;21.60;;;;;;;-2.04;79.51;101915.63;4977336;28;20035;-79
2022/03/03 04:08:09;;;;;;;33.00;19.80;;;;;;;-2.34;78.84;101865.66;4977154;28;20049;-76
2022/03/03 04:10:34;;;;;;;33.55;20.48;;;;;;;-2.14;78.54;101896.16;4976996;28;20528;-77
2022/03/03 04:12:59;;;;;;;35.83;22.20;;;;;;;-2.28;78.99;101865.69;4977101;28;20468;-79
2022/03/03 04:15:25;;;;;;;35.95;22.20;;;;;;;-1.83;77.97;101930.94;4977039;28;20588;-77
2022/03/03 04:17:50;;;;;;;39.38;22.02;;;;;;;-1.95;78.08;101903.03;4977047;28;20034;-76
2022/03/03 04:20:15;;;;;;;33.72;21.17;;;;;;;-1.84;78.21;101918.28;4976987;28;20492;-77
2022/03/03 04:22:41;;;;;;;35.33;21.95;;;;;;;-1.91;78.18;101903.88;4976703;28;20033;-78
2022/03/03 04:25:10;;;;;;;36.33;22.15;;;;;;;-1.85;78.27;101916.59;4977134;28;20105;-77
2022/03/03 04:27:37;;;;;;;35.00;21.45;;;;;;;-1.91;78.39;101914.00;4976810;28;20023;-80
2022/03/03 04:30:04;;;;;;;38.03;22.65;;;;;;;-1.97;78.83;101907.22;4975625;28;20047;-78
2022/03/03 04:32:29;;;;;;;36.03;22.75;;;;;;;-2.02;78.94;101907.19;4976489;28;20403;-76
2022/03/03 04:34:55;;;;;;;34.03;21.80;;;;;;;-2.02;78.52;101906.34;4976912;28;20035;-78
2022/03/03 04:37:20;;;;;;;35.95;22.23;;;;;;;-2.26;78.86;101865.69;4976721;28;20089;-77
2022/03/03 04:39:45;;;;;;;35.50;21.55;;;;;;;-2.06;78.86;101902.13;4976470;28;20449;-78
2022/03/03 04:42:11;;;;;;;35.55;20.80;;;;;;;-2.18;79.02;101884.31;4976631;28;20031;-80
2022/03/03 04:44:36;;;;;;;34.58;22.58;;;;;;;-2.12;79.23;101907.13;4976648;28;20029;-81
2022/03/03 04:47:02;;;;;;;37.53;20.67;;;;;;;-2.12;78.37;101899.53;4976382;28;20117;-80
2022/03/03 04:49:27;;;;;;;32.58;20.40;;;;;;;-2.15;78.56;101890.25;4976540;28;20054;-77
2022/03/03 04:51:52;;;;;;;35.10;21.80;;;;;;;-2.18;79.19;101882.63;4990603;28;20476;-77
2022/03/03 04:54:19;;;;;;;31.85;21.35;;;;;;;-2.20;79.26;101889.34;4976221;28;20037;-77
2022/03/03 04:56:44;;;;;;;32.55;21.10;;;;;;;-2.20;78.86;101894.41;4989701;28;20058;-77
2022/03/03 04:59:09;;;;;;;32.75;21.63;;;;;;;-2.31;79.15;101873.25;4974692;28;20073;-77
2022/03/03 05:01:35;;;;;;;34.92;21.30;;;;;;;-2.21;79.62;101897.78;4976249;28;20031;-78
2022/03/03 05:04:00;;;;;;;34.22;21.92;;;;;;;-2.19;78.94;101896.13;4976051;28;20027;-78
2022/03/03 05:06:25;;;;;;;32.03;20.75;;;;;;;-2.19;78.49;101897.78;4976169;28;20038;-80
2022/03/03 05:08:51;;;;;;;33.95;21.88;;;;;;;-2.50;79.31;101857.13;4990324;28;20082;-78
2022/03/03 05:11:16;;;;;;;36.47;21.90;;;;;;;-2.25;79.75;101903.69;4976125;28;20117;-79
2022/03/03 05:13:41;;;;;;;32.45;21.00;;;;;;;-2.24;79.95;101904.53;4976199;28;20392;-77
2022/03/03 05:16:07;;;;;;;35.08;20.25;;;;;;;-2.27;78.83;101895.22;4976011;28;20035;-79
2022/03/03 05:18:32;;;;;;;35.22;22.75;;;;;;;-2.27;79.28;101889.31;4975686;28;20030;-80
2022/03/03 05:20:58;;;;;;;32.10;21.27;;;;;;;-2.35;80.00;101894.34;4976013;28;20045;-78
2022/03/03 05:23:23;;;;;;;34.90;21.70;;;;;;;-2.28;79.28;101900.25;4976020;28;20054;-79
2022/03/03 05:25:49;;;;;;;33.67;22.42;;;;;;;-2.26;79.50;101898.59;4975807;28;20123;-77
2022/03/03 05:28:14;;;;;;;38.05;20.77;;;;;;;-2.21;79.36;101900.31;4975806;28;20109;-76
2022/03/03 05:30:40;;;;;;;34.83;20.55;;;;;;;-2.34;78.55;101881.69;4975607;28;20034;-79
2022/03/03 05:33:05;;;;;;;36.03;21.33;;;;;;;-2.24;79.03;101897.78;4975460;28;20027;-77
2022/03/03 05:35:31;;;;;;;36.08;21.27;;;;;;;-2.20;78.96;101903.69;4975652;28;20027;-77
2022/03/03 05:37:56;;;;;;;35.65;21.00;;;;;;;-2.37;78.05;101875.75;4975772;28;20042;-77
2022/03/03 05:40:21;;;;;;;31.67;20.15;;;;;;;-2.12;78.24;101910.50;4975292;28;20034;-84
2022/03/03 05:42:47;;;;;;;34.92;20.23;;;;;;;-2.15;78.20;101913.03;4975578;28;20055;-79
2022/03/03 05:45:12;;;;;;;32.80;20.98;;;;;;;-2.19;78.21;101907.91;4975694;28;20023;-78
2022/03/03 05:47:38;;;;;;;36.63;21.73;;;;;;;-2.25;78.40;101918.84;4975286;28;20031;-82
2022/03/03 05:50:05;;;;;;;38.50;21.55;;;;;;;-2.52;78.89;101883.25;4975286;28;20085;-84
2022/03/03 05:52:31;;;;;;;33.63;20.63;;;;;;;-2.35;78.73;101907.81;4975222;28;20035;-77
2022/03/03 05:54:57;;;;;;;32.58;20.33;;;;;;;-2.64;79.08;101862.09;4975325;28;20054;-79
2022/03/03 05:57:27;;;;;;;33.58;20.63;;;;;;;-2.73;79.73;101846.84;4973830;28;20504;-85
2022/03/03 05:59:57;;;;;;;37.47;21.83;;;;;;;-2.48;80.45;101900.97;4975203;28;20123;-85
2022/03/03 06:02:22;;;;;;;33.63;21.55;;;;;;;-2.49;80.20;101909.38;4975000;28;20027;-80
2022/03/03 06:04:50;;;;;;;36.47;21.35;;;;;;;-2.74;79.86;101860.31;4974986;28;20034;-85
2022/03/03 06:07:24;;;;;;;34.53;21.05;;;;;;;-2.52;80.15;101904.31;4973705;28;20026;-82
2022/03/03 06:09:52;;;;;;;35.30;20.35;;;;;;;-2.85;79.29;101856.84;4973888;28;20034;-78
2022/03/03 06:12:25;;;;;;;34.85;21.58;;;;;;;-2.57;80.30;101900.03;4974818;28;20031;-83
2022/03/03 06:14:59;;;;;;;36.88;20.77;;;;;;;-2.58;80.29;101901.72;4974592;28;20444;-86
2022/03/03 06:17:26;;;;;;;31.95;21.20;;;;;;;-2.97;81.06;101844.09;4974846;28;20029;-76
2022/03/03 06:19:52;;;;;;;36.17;21.35;;;;;;;-2.64;81.33;101905.06;4975003;28;20027;-77
2022/03/03 06:22:19;;;;;;;34.80;22.10;;;;;;;-2.66;81.83;101896.59;4975189;28;20053;-78
2022/03/03 06:24:45;;;;;;;34.42;21.95;;;;;;;-2.93;81.36;101854.25;4974403;28;20539;-86
2022/03/03 06:27:10;;;;;;;34.17;22.17;;;;;;;-2.84;81.28;101868.66;4974574;28;20027;-77
2022/03/03 06:29:36;;;;;;;33.13;20.70;;;;;;;-2.78;81.50;101878.78;4974474;28;20038;-80
2022/03/03 06:32:02;;;;;;;32.60;21.08;;;;;;;-2.62;81.64;101908.44;4974174;28;20033;-90
2022/03/03 06:34:28;;;;;;;35.33;21.30;;;;;;;-2.63;81.79;101901.69;4974346;28;20531;-77
2022/03/03 06:36:53;;;;;;;36.15;20.75;;;;;;;-2.59;81.09;101902.56;4974467;28;20019;-79
2022/03/03 06:39:19;;;;;;;35.35;22.10;;;;;;;-2.60;80.76;101904.25;4974142;28;20038;-82
2022/03/03 06:41:47;;;;;;;31.30;21.20;;;;;;;-2.75;81.16;101880.50;4974484;28;20015;-77
2022/03/03 06:44:13;;;;;;;36.85;21.58;;;;;;;-2.72;81.55;101883.06;4974179;28;20023;-77
2022/03/03 06:46:38;;;;;;;34.05;21.02;;;;;;;-2.55;81.44;101913.56;4974179;28;20035;-80
2022/03/03 06:49:05;;;;;;;36.55;21.02;;;;;;;-2.57;81.10;101895.81;4974227;28;20102;-78
2022/03/03 06:51:56;;;;;;;38.75;20.83;;;;;;;-2.55;80.07;101878.16;4974347;28;20019;-79
2022/03/03 06:54:22;;;;;;;38.42;21.60;;;;;;;-2.36;80.12;101913.72;4974270;28;20110;-80
2022/03/03 06:56:51;;;;;;;35.38;21.20;;;;;;;-2.28;80.63;101917.97;4973847;28;20047;-78
2022/03/03 06:59:18;;;;;;;36.35;21.58;;;;;;;-2.29;80.57;101908.69;4973939;28;20365;-79
2022/03/03 07:01:47;;;;;;;39.08;22.40;;;;;;;-2.43;80.60;101876.56;4973988;28;20026;-79
2022/03/03 07:04:14;;;;;;;35.65;22.40;;;;;;;-2.28;80.46;101890.16;4979036;28;20030;-78
2022/03/03 07:06:40;;;;;;;36.00;23.08;;;;;;;-2.05;80.31;101926.59;4974283;28;20031;-78
2022/03/03 07:09:08;;;;;;;32.97;21.13;;;;;;;-1.94;79.58;101924.13;4973845;28;20029;-76
2022/03/03 07:11:33;;;;;;;36.38;21.23;;;;;;;-1.82;79.40;101932.63;4973776;28;20030;-77
2022/03/03 07:13:59;;;;;;;36.30;21.60;;;;;;;-1.65;78.75;101931.88;4973854;28;20106;-81
2022/03/03 07:17:00;;;;;;;30.70;20.30;;;;;;;-1.49;77.66;101921.81;4973999;28;20031;-77
2022/03/03 07:19:26;;;;;;;34.60;20.13;;;;;;;-1.30;76.98;101926.94;4973969;28;20038;-77
2022/03/03 07:22:10;;;;;;;31.98;19.98;;;;;;;-1.18;76.33;101919.38;4973855;28;20031;-76
2022/03/03 07:24:44;;;;;;;32.42;20.67;;;;;;;-1.06;75.74;101921.13;4973874;28;20019;-77
2022/03/03 07:27:17;;;;;;;31.40;19.70;;;;;;;-0.95;75.39;101930.44;4973831;28;20612;-78
2022/03/03 07:29:46;;;;;;;33.38;21.10;;;;;;;-0.90;75.15;101922.81;4973622;28;20038;-76
2022/03/03 07:32:15;;;;;;;36.35;21.15;;;;;;;-0.78;74.82;101927.09;4973547;28;20473;-76
2022/03/03 07:34:41;;;;;;;37.00;22.52;;;;;;;-0.70;75.39;101923.69;4973602;28;20031;-77
2022/03/03 07:37:11;;;;;;;34.13;20.00;;;;;;;-1.04;74.44;101856.06;4973698;28;20022;-83
2022/03/03 07:39:44;;;;;;;35.38;20.55;;;;;;;-0.75;73.80;101889.91;4972304;28;20033;-80
2022/03/03 07:42:17;;;;;;;32.80;20.48;;;;;;;-0.44;73.78;101935.56;4973549;28;20030;-77
2022/03/03 07:44:43;;;;;;;32.70;20.00;;;;;;;-0.36;73.51;101928.81;4971612;28;20031;-76
2022/03/03 07:47:08;;;;;;;31.00;20.35;;;;;;;-0.41;73.04;101908.47;4973783;28;20049;-72
2022/03/03 07:49:34;;;;;;;33.70;20.75;;;;;;;-0.16;73.33;101932.16;4973573;28;20085;-77
2022/03/03 07:52:04;;;;;;;30.95;19.95;;;;;;;-0.27;71.85;101905.97;4973361;28;20031;-75
2022/03/03 07:54:30;;;;;;;31.33;19.42;;;;;;;-0.05;72.11;101916.94;4972440;28;20054;-76
2022/03/03 07:56:57;;;;;;;33.22;21.10;;;;;;;0.14;71.92;101936.34;4973319;28;20050;-76
2022/03/03 07:59:34;;;;;;;34.70;19.60;;;;;;;0.05;71.10;101905.06;4973762;28;20046;-77
2022/03/03 08:02:01;;;;;;;32.08;20.48;;;;;;;0.01;70.71;101888.16;4973412;28;20480;-76
2022/03/03 08:04:29;;;;;;;28.83;18.92;;;;;;;0.34;69.71;101922.75;4973354;28;20030;-76
2022/03/03 08:07:05;;;;;;;32.65;20.02;;;;;;;0.58;69.73;101943.81;4973447;28;20753;-76
2022/03/03 08:09:33;;;;;;;30.65;18.95;;;;;;;0.45;69.32;101910.84;4973258;28;20051;-82
2022/03/03 08:12:05;;;;;;;31.38;19.48;;;;;;;0.74;69.27;101947.16;4973222;28;20477;-79
2022/03/03 08:14:35;;;;;;;31.65;19.05;;;;;;;0.60;69.11;101920.97;4973515;28;20035;-81
2022/03/03 08:17:00;;;;;;;32.03;20.17;;;;;;;0.79;68.77;101926.81;4973368;28;20440;-77
2022/03/03 08:19:26;;;;;;;31.85;19.60;;;;;;;1.00;68.29;101951.28;4973578;28;20027;-78
2022/03/03 08:21:51;;;;;;;32.60;18.65;;;;;;;1.04;68.22;101940.22;4973410;28;20081;-79
2022/03/03 08:24:17;;;;;;;29.75;18.88;;;;;;;0.90;67.57;101912.34;4988161;28;20600;-81
2022/03/03 08:26:44;;;;;;;27.48;17.75;;;;;;;1.11;67.58;101934.25;4973331;28;20023;-78
2022/03/03 08:29:10;;;;;;;27.48;18.08;;;;;;;1.11;66.53;101916.47;4973342;28;20034;-78
2022/03/03 08:31:38;;;;;;;31.02;18.25;;;;;;;1.22;65.97;101911.28;4973112;28;20085;-79
2022/03/03 08:34:12;;;;;;;29.25;18.27;;;;;;;1.53;66.06;101939.91;4976645;28;20023;-76
2022/03/03 08:36:47;;;;;;;27.98;17.80;;;;;;;1.57;65.63;101933.91;4976834;28;20042;-76
2022/03/03 08:39:15;;;;;;;28.02;18.42;;;;;;;1.76;64.55;101944.78;4974908;28;20050;-78
2022/03/03 08:41:42;;;;;;;28.27;17.45;;;;;;;1.89;64.02;101941.31;4976473;28;20086;-76
2022/03/03 08:44:10;;;;;;;26.58;17.27;;;;;;;1.94;64.54;101935.28;4976454;28;20031;-77
2022/03/03 08:46:37;;;;;;;26.10;16.92;;;;;;;1.71;63.79;101891.38;4976397;28;20031;-80
2022/03/03 08:49:06;;;;;;;26.35;17.17;;;;;;;2.08;64.74;101939.44;4976461;28;20468;-75
2022/03/03 08:51:31;;;;;;;28.80;18.80;;;;;;;2.15;63.85;101941.03;4976348;28;20031;-75
2022/03/03 08:53:57;;;;;;;28.02;18.17;;;;;;;2.06;62.88;101902.91;4976649;28;20038;-79
2022/03/03 08:56:23;;;;;;;28.10;17.35;;;;;;;2.29;61.95;101927.28;4990729;28;20051;-77
2022/03/03 08:58:52;;;;;;;27.67;15.80;;;;;;;2.38;62.84;101938.25;4976247;28;20035;-75
2022/03/03 09:01:18;;;;;;;25.25;16.50;;;;;;;2.26;62.04;101906.94;4976167;28;20031;-74
2022/03/03 09:03:46;;;;;;;25.23;16.05;;;;;;;2.39;61.74;101919.53;4975937;28;20019;-78
2022/03/03 09:06:19;;;;;;;27.30;16.23;;;;;;;2.55;61.95;101939.72;4976139;28;20031;-77
2022/03/03 09:08:44;;;;;;;24.45;16.17;;;;;;;2.68;61.95;101934.50;4975991;28;20468;-75
2022/03/03 09:11:10;;;;;;;27.02;17.73;;;;;;;2.77;61.27;101934.38;4975905;28;20026;-76
2022/03/03 09:13:36;;;;;;;22.85;15.40;;;;;;;2.68;60.17;101909.84;4975959;28;20503;-78
2022/03/03 09:16:02;;;;;;;25.05;16.77;;;;;;;2.88;60.41;101927.44;4975719;28;20027;-76
2022/03/03 09:18:27;;;;;;;24.77;16.80;;;;;;;2.79;60.35;101909.69;4976071;28;20023;-76
2022/03/03 09:20:53;;;;;;;23.90;16.13;;;;;;;2.85;60.49;101902.81;4974562;28;20026;-76
2022/03/03 09:23:18;;;;;;;27.10;17.20;;;;;;;3.07;60.51;101925.47;4975896;28;20035;-75
2022/03/03 09:25:44;;;;;;;25.45;17.02;;;;;;;3.12;60.26;101926.22;4975649;28;20138;-76
2022/03/03 09:28:09;;;;;;;25.67;15.45;;;;;;;3.21;59.62;101923.53;4975593;28;20023;-75
2022/03/03 09:30:35;;;;;;;27.35;16.20;;;;;;;3.08;59.09;101899.91;4975426;28;20444;-76
2022/03/03 09:33:01;;;;;;;24.77;15.93;;;;;;;3.14;58.39;101889.59;4975455;28;20029;-77
2022/03/03 09:35:26;;;;;;;22.83;15.27;;;;;;;3.43;58.08;101916.38;4975865;28;20023;-76
2022/03/03 09:37:52;;;;;;;25.17;15.52;;;;;;;3.52;57.87;101918.78;4975559;28;20449;-75
2022/03/03 09:40:18;;;;;;;25.92;16.00;;;;;;;3.59;57.88;101917.00;4975655;28;20022;-82
2022/03/03 09:43:05;;;;;;;23.85;15.23;;;;;;;3.65;57.30;101916.91;4975037;28;20114;-83
2022/03/03 09:45:32;;;;;;;23.05;15.48;;;;;;;3.78;57.32;101917.53;4975238;28;20035;-79
2022/03/03 09:47:59;;;;;;;23.83;14.93;;;;;;;3.78;57.21;101905.59;4975437;28;20026;-76
2022/03/03 09:50:25;;;;;;;24.27;15.85;;;;;;;4.01;56.24;101921.34;4975564;28;20065;-75
2022/03/03 09:52:52;;;;;;;24.85;15.70;;;;;;;3.97;57.40;101906.94;4975363;28;20027;-78
2022/03/03 09:55:18;;;;;;;27.88;16.55;;;;;;;4.09;56.00;101921.22;4975417;28;20386;-84
2022/03/03 09:57:44;;;;;;;25.08;15.73;;;;;;;4.06;56.09;101902.53;4974918;28;20050;-85
2022/03/03 10:00:12;;;;;;;24.55;15.68;;;;;;;4.32;55.61;101921.59;4974864;28;20033;-75
2022/03/03 10:02:56;;;;;;;25.60;15.98;;;;;;;4.42;56.56;101916.31;4975162;28;20070;-75
2022/03/03 10:05:33;;;;;;;21.67;14.82;;;;;;;4.42;55.38;101912.03;4974950;28;20019;-80
2022/03/03 10:08:02;;;;;;;23.05;16.17;;;;;;;4.43;54.91;101915.47;4973885;28;20039;-75
2022/03/03 10:10:28;;;;;;;23.80;15.98;;;;;;;4.53;54.01;101917.81;4974881;28;20026;-75
2022/03/03 10:12:56;;;;;;;26.08;15.20;;;;;;;4.48;54.74;101883.78;4974989;28;20377;-77
2022/03/03 10:15:26;;;;;;;25.58;16.48;;;;;;;4.62;55.03;101909.06;4974882;28;20050;-75
2022/03/03 10:17:56;;;;;;;23.25;15.20;;;;;;;4.63;54.32;101902.28;4974826;28;20022;-76
2022/03/03 10:20:22;;;;;;;23.63;14.93;;;;;;;4.59;52.63;101881.84;4974864;28;20038;-77
2022/03/03 10:22:57;;;;;;;25.52;14.55;;;;;;;4.87;53.42;101900.00;4974775;28;20034;-76
2022/03/03 10:25:34;;;;;;;28.35;16.33;;;;;;;4.99;53.58;101904.00;4974525;28;20365;-76
2022/03/03 10:28:27;;;;;;;22.75;14.77;;;;;;;4.95;54.01;101881.09;4974489;28;20392;-75
2022/03/03 10:31:00;;;;;;;22.83;15.73;;;;;;;5.15;52.44;101892.53;4972002;28;20035;-76
2022/03/03 10:33:29;;;;;;;25.27;14.40;;;;;;;5.17;52.88;101887.38;4974780;28;20472;-81
2022/03/03 10:36:00;;;;;;;24.98;15.45;;;;;;;5.20;51.53;101897.53;4974506;28;20023;-77
2022/03/03 10:38:25;;;;;;;22.75;14.15;;;;;;;5.20;51.54;101869.38;4974570;28;20023;-80
2022/03/03 10:40:51;;;;;;;23.23;14.25;;;;;;;5.45;50.99;101892.69;4974527;28;20057;-78
2022/03/03 10:43:16;;;;;;;21.95;14.50;;;;;;;5.50;50.39;101890.00;4974075;28;20484;-74
2022/03/03 10:46:00;;;;;;;22.23;14.05;;;;;;;5.47;51.99;101889.19;4972910;28;20050;-77
2022/03/03 10:48:27;;;;;;;21.40;13.50;;;;;;;5.56;50.85;101897.53;4974226;28;20436;-85
2022/03/03 10:50:55;;;;;;;20.35;13.88;;;;;;;5.52;49.40;101866.06;4974369;28;20081;-81
2022/03/03 10:53:22;;;;;;;21.23;13.95;;;;;;;5.62;48.64;101866.66;4974115;28;20023;-84
2022/03/03 10:56:08;;;;;;;25.70;14.25;;;;;;;5.94;48.49;101884.63;4973695;28;20031;-76
2022/03/03 10:58:49;;;;;;;21.83;14.43;;;;;;;6.03;47.22;101892.06;4972269;28;20046;-76
2022/03/03 11:01:16;;;;;;;20.02;13.60;;;;;;;5.86;46.23;101857.47;4974264;28;20412;-76
2022/03/03 11:03:49;;;;;;;18.60;13.02;;;;;;;6.03;46.50;101875.84;4974182;28;20033;-77
2022/03/03 11:06:16;;;;;;;19.60;12.93;;;;;;;6.08;46.02;101870.56;4974171;28;20026;-85
2022/03/03 11:08:41;;;;;;;21.65;13.40;;;;;;;6.23;45.94;101893.25;4973882;28;20515;-82
2022/03/03 11:11:08;;;;;;;18.42;12.85;;;;;;;6.15;45.23;101860.09;4973754;28;20035;-84
2022/03/03 11:13:35;;;;;;;19.52;13.70;;;;;;;6.35;45.50;101882.63;4973449;28;20109;-78
2022/03/03 11:16:04;;;;;;;20.05;12.68;;;;;;;6.20;46.04;101850.56;4973901;28;20373;-81